createdAt,value
2023-04-16T00:02:14.727Z,102382.97
2023-04-16T00:04:42.356Z,102382.47
2023-04-16T00:07:09.585Z,102375.59
2023-04-16T00:09:36.944Z,102381.13
2023-04-16T00:12:04.626Z,102368.88
2023-04-16T00:14:32.184Z,102373.03
2023-04-16T00:16:59.433Z,102374.16
2023-04-16T00:19:26.657Z,102366.75
2023-04-16T00:21:54.187Z,102377.53
2023-04-16T00:24:21.424Z,102372.81
2023-04-16T00:26:48.784Z,102372.19
2023-04-16T00:29:16.218Z,102368.81
2023-04-16T00:31:43.684Z,102363.03
2023-04-16T00:34:11.061Z,102359.84
2023-04-16T00:36:38.982Z,102355.84
2023-04-16T00:39:06.601Z,102363.88
2023-04-16T00:41:33.869Z,102362.72
2023-04-16T00:44:01.303Z,102366.03
2023-04-16T00:46:28.461Z,102351.13
2023-04-16T00:48:56.442Z,102362.53
2023-04-16T00:51:24.160Z,102358.00
2023-04-16T00:53:51.709Z,102360.78
2023-04-16T00:56:20.604Z,102359.66
2023-04-16T00:58:49.001Z,102361.09
2023-04-16T01:01:16.569Z,102367.47
2023-04-16T01:03:46.103Z,102357.72
2023-04-16T01:06:14.099Z,102369.59
2023-04-16T01:08:41.353Z,102369.59
2023-04-16T01:11:10.322Z,102369.59
2023-04-16T01:13:39.811Z,102371.59
2023-04-16T01:16:08.968Z,102369.50
2023-04-16T01:18:37.095Z,102366.44
2023-04-16T01:21:05.385Z,102369.50
2023-04-16T01:23:33.382Z,102371.78
2023-04-16T01:26:00.805Z,102374.56
2023-04-16T01:28:28.184Z,102376.72
2023-04-16T01:30:55.673Z,102369.50
2023-04-16T01:33:38.815Z,102369.50
2023-04-16T01:36:07.738Z,102362.00
2023-04-16T01:38:35.050Z,102378.38
2023-04-16T01:41:02.404Z,102378.06
2023-04-16T01:43:29.588Z,102365.28
2023-04-16T01:46:21.127Z,102371.06
2023-04-16T01:48:48.962Z,102371.91
2023-04-16T01:51:16.469Z,102379.16
2023-04-16T01:53:43.894Z,102371.38
2023-04-16T01:56:11.245Z,102374.44
2023-04-16T01:58:38.966Z,102363.66
2023-04-16T02:01:06.375Z,102370.22
2023-04-16T02:03:34.300Z,102372.50
2023-04-16T02:06:02.113Z,102369.13
2023-04-16T02:08:29.410Z,102374.34
2023-04-16T02:10:57.785Z,102376.31
2023-04-16T02:13:26.484Z,102369.13
2023-04-16T02:15:54.531Z,102382.38
2023-04-16T02:18:34.184Z,102379.00
2023-04-16T02:21:02.025Z,102377.66
2023-04-16T02:23:29.819Z,102375.19
2023-04-16T02:25:58.788Z,102382.38
2023-04-16T02:28:26.124Z,102376.31
2023-04-16T02:30:53.378Z,102377.66
2023-04-16T02:33:21.837Z,102381.13
2023-04-16T02:36:02.051Z,102376.22
2023-04-16T02:38:29.417Z,102379.50
2023-04-16T02:40:56.585Z,102386.69
2023-04-16T02:43:24.080Z,102384.53
2023-04-16T02:45:51.461Z,102383.91
2023-04-16T02:48:18.720Z,102389.78
2023-04-16T02:50:45.822Z,102390.91
2023-04-16T02:53:13.250Z,102388.84
2023-04-16T02:55:40.464Z,102383.91
2023-04-16T02:58:07.980Z,102398.59
2023-04-16T03:00:35.197Z,102393.56
2023-04-16T03:03:03.011Z,102391.72
2023-04-16T03:05:30.361Z,102396.97
2023-04-16T03:07:57.746Z,102394.50
2023-04-16T03:10:25.041Z,102402.22
2023-04-16T03:12:52.860Z,102399.44
2023-04-16T03:15:19.990Z,102398.59
2023-04-16T03:17:47.499Z,102402.72
2023-04-16T03:20:17.364Z,102396.06
2023-04-16T03:22:44.844Z,102394.22
2023-04-16T03:25:13.580Z,102401.91
2023-04-16T03:27:41.021Z,102393.88
2023-04-16T03:30:10.329Z,102406.31
2023-04-16T03:32:37.704Z,102403.03
2023-04-16T03:35:06.867Z,102407.16
2023-04-16T03:37:34.845Z,102400.44
2023-04-16T03:40:02.867Z,102399.13
2023-04-16T03:42:31.883Z,102405.50
2023-04-16T03:44:59.723Z,102407.16
2023-04-16T03:47:27.628Z,102401.38
2023-04-16T03:49:58.743Z,102410.22
2023-04-16T03:52:28.417Z,102404.16
2023-04-16T03:54:56.348Z,102410.53
2023-04-16T03:57:28.700Z,102411.06
2023-04-16T04:00:01.744Z,102412.19
2023-04-16T04:02:41.799Z,102407.75
2023-04-16T04:05:16.829Z,102401.38
2023-04-16T04:07:45.839Z,102407.44
2023-04-16T04:10:14.454Z,102399.94
2023-04-16T04:12:43.392Z,102408.59
2023-04-16T04:15:11.996Z,102408.78
2023-04-16T04:17:39.289Z,102399.13
2023-04-16T04:20:07.264Z,102406.66
2023-04-16T04:22:34.383Z,102403.56
2023-04-16T04:25:01.986Z,102409.41
2023-04-16T04:27:32.168Z,102404.38
2023-04-16T04:29:59.663Z,102406.31
2023-04-16T04:32:27.007Z,102407.16
2023-04-16T04:34:54.482Z,102409.63
2023-04-16T04:37:21.673Z,102414.56
2023-04-16T04:39:49.124Z,102416.00
2023-04-16T04:42:18.580Z,102411.28
2023-04-16T04:44:46.435Z,102413.53
2023-04-16T04:47:14.334Z,102415.47
2023-04-16T04:49:41.903Z,102417.44
2023-04-16T04:52:09.558Z,102418.75
2023-04-16T04:54:37.607Z,102420.94
2023-04-16T04:57:05.323Z,102420.72
2023-04-16T04:59:32.803Z,102426.59
2023-04-16T05:02:00.617Z,102425.16
2023-04-16T05:04:28.084Z,102427.31
2023-04-16T05:06:55.581Z,102433.47
2023-04-16T05:09:22.613Z,102440.69
2023-04-16T05:11:50.120Z,102433.47
2023-04-16T05:14:17.325Z,102432.66
2023-04-16T05:16:44.924Z,102435.13
2023-04-16T05:19:12.504Z,102438.09
2023-04-16T05:21:40.029Z,102429.56
2023-04-16T05:24:07.167Z,102436.47
2023-04-16T05:26:34.567Z,102438.31
2023-04-16T05:29:01.947Z,102433.28
2023-04-16T05:31:29.307Z,102442.03
2023-04-16T05:33:56.622Z,102451.69
2023-04-16T05:36:23.947Z,102439.25
2023-04-16T05:38:51.171Z,102442.31
2023-04-16T05:41:18.438Z,102453.13
2023-04-16T05:43:45.822Z,102454.47
2023-04-16T05:46:13.248Z,102454.66
2023-04-16T05:48:40.325Z,102461.84
2023-04-16T05:51:07.748Z,102450.25
2023-04-16T05:53:35.023Z,102455.81
2023-04-16T05:56:02.470Z,102457.53
2023-04-16T05:58:29.717Z,102462.78
2023-04-16T06:00:57.244Z,102449.53
2023-04-16T06:03:24.736Z,102467.00
2023-04-16T06:05:52.470Z,102460.63
2023-04-16T06:08:19.971Z,102462.47
2023-04-16T06:10:47.822Z,102466.38
2023-04-16T06:13:15.227Z,102465.56
2023-04-16T06:15:42.494Z,102473.25
2023-04-16T06:18:10.096Z,102472.97
2023-04-16T06:20:37.441Z,102470.19
2023-04-16T06:23:04.788Z,102474.91
2023-04-16T06:25:32.049Z,102478.09
2023-04-16T06:27:59.031Z,102483.47
2023-04-16T06:30:26.003Z,102489.00
2023-04-16T06:32:54.097Z,102483.97
2023-04-16T06:35:21.446Z,102484.47
2023-04-16T06:37:48.803Z,102483.97
2023-04-16T06:40:16.165Z,102492.19
2023-04-16T06:42:45.323Z,102488.59
2023-04-16T06:45:13.570Z,102487.75
2023-04-16T06:47:41.147Z,102487.47
2023-04-16T06:50:08.839Z,102497.75
2023-04-16T06:52:36.620Z,102490.53
2023-04-16T06:55:04.121Z,102497.75
2023-04-16T06:57:31.568Z,102494.66
2023-04-16T06:59:58.865Z,102496.50
2023-04-16T07:02:26.667Z,102501.97
2023-04-16T07:04:54.221Z,102501.97
2023-04-16T07:07:21.901Z,102506.31
2023-04-16T07:09:49.142Z,102503.81
2023-04-16T07:12:16.246Z,102506.41
2023-04-16T07:14:43.489Z,102504.88
2023-04-16T07:17:10.684Z,102515.38
2023-04-16T07:19:38.185Z,102514.22
2023-04-16T07:22:05.585Z,102518.94
2023-04-16T07:24:33.098Z,102515.88
2023-04-16T07:27:00.506Z,102509.38
2023-04-16T07:29:27.802Z,102511.03
2023-04-16T07:31:55.331Z,102516.69
2023-04-16T07:34:22.732Z,102522.34
2023-04-16T07:36:50.030Z,102520.91
2023-04-16T07:39:17.584Z,102518.84
2023-04-16T07:41:44.948Z,102518.66
2023-04-16T07:44:12.325Z,102514.22
2023-04-16T07:46:46.853Z,102529.22
2023-04-16T07:49:15.196Z,102533.97
2023-04-16T07:51:42.572Z,102532.63
2023-04-16T07:54:11.060Z,102531.91
2023-04-16T07:56:38.381Z,102531.31
2023-04-16T07:59:21.085Z,102541.41
2023-04-16T08:01:50.165Z,102538.31
2023-04-16T08:04:23.465Z,102534.28
2023-04-16T08:06:51.892Z,102538.63
2023-04-16T08:09:23.823Z,102544.88
2023-04-16T08:11:51.305Z,102535.94
2023-04-16T08:14:18.683Z,102543.13
2023-04-16T08:16:46.540Z,102544.75
2023-04-16T08:19:14.170Z,102549.00
2023-04-16T08:21:41.526Z,102553.81
2023-04-16T08:24:08.803Z,102554.75
2023-04-16T08:26:36.305Z,102562.31
2023-04-16T08:29:03.568Z,102561.38
2023-04-16T08:31:31.103Z,102567.34
2023-04-16T08:33:58.588Z,102566.41
2023-04-16T08:36:25.766Z,102559.94
2023-04-16T08:38:52.503Z,102566.00
2023-04-16T08:41:22.083Z,102566.09
2023-04-16T08:43:51.203Z,102564.47
2023-04-16T08:46:19.913Z,102568.69
2023-04-16T08:48:49.662Z,102576.91
2023-04-16T08:51:17.490Z,102577.03
2023-04-16T08:53:49.737Z,102575.59
2023-04-16T08:56:23.537Z,102575.88
2023-04-16T08:58:51.516Z,102579.44
2023-04-16T09:01:19.201Z,102574.19
2023-04-16T09:03:48.777Z,102577.41
2023-04-16T09:06:19.077Z,102582.84
2023-04-16T09:08:48.756Z,102594.28
2023-04-16T09:11:18.309Z,102586.16
2023-04-16T09:13:46.442Z,102592.53
2023-04-16T09:16:14.168Z,102599.06
2023-04-16T09:18:41.450Z,102593.50
2023-04-16T09:21:10.896Z,102592.34
2023-04-16T09:23:38.989Z,102600.16
2023-04-16T09:26:06.289Z,102601.59
2023-04-16T09:28:39.609Z,102598.72
2023-04-16T09:31:14.727Z,102605.84
2023-04-16T09:33:43.237Z,102609.13
2023-04-16T09:36:11.474Z,102603.94
2023-04-16T09:38:48.735Z,102606.41
2023-04-16T09:41:16.904Z,102605.88
2023-04-16T09:44:02.596Z,102606.22
2023-04-16T09:46:36.596Z,102609.63
2023-04-16T09:49:11.349Z,102613.09
2023-04-16T09:51:41.910Z,102615.28
2023-04-16T09:54:09.816Z,102611.34
2023-04-16T09:56:43.728Z,102623.41
2023-04-16T09:59:21.376Z,102617.22
2023-04-16T10:02:14.354Z,102625.69
2023-04-16T10:04:51.956Z,102626.63
2023-04-16T10:07:20.089Z,102627.03
2023-04-16T10:09:53.190Z,102622.41
2023-04-16T10:12:21.117Z,102625.91
2023-04-16T10:14:50.075Z,102632.50
2023-04-16T10:17:18.169Z,102639.72
2023-04-16T10:19:46.053Z,102633.09
2023-04-16T10:22:14.140Z,102635.28
2023-04-16T10:24:41.673Z,102631.13
2023-04-16T10:27:09.029Z,102635.47
2023-04-16T10:29:37.089Z,102640.50
2023-04-16T10:32:04.678Z,102641.75
2023-04-16T10:34:31.931Z,102641.91
2023-04-16T10:36:59.518Z,102635.34
2023-04-16T10:39:29.974Z,102645.41
2023-04-16T10:42:12.999Z,102653.25
2023-04-16T10:44:45.439Z,102645.53
2023-04-16T10:47:14.294Z,102645.91
2023-04-16T10:49:42.866Z,102644.88
2023-04-16T10:52:19.226Z,102648.34
2023-04-16T10:55:08.617Z,102646.63
2023-04-16T10:57:36.358Z,102649.22
2023-04-16T11:00:04.442Z,102652.69
2023-04-16T11:02:32.007Z,102644.44
2023-04-16T11:05:02.457Z,102646.38
2023-04-16T11:07:35.144Z,102643.53
2023-04-16T11:10:07.563Z,102650.34
2023-04-16T11:12:34.907Z,102640.94
2023-04-16T11:15:11.060Z,102644.88
2023-04-16T11:17:51.995Z,102642.03
2023-04-16T11:20:25.946Z,102638.66
2023-04-16T11:22:55.762Z,102650.75
2023-04-16T11:25:25.322Z,102649.78
2023-04-16T11:27:53.582Z,102641.56
2023-04-16T11:30:30.435Z,102641.69
2023-04-16T11:32:58.155Z,102644.22
2023-04-16T11:35:25.786Z,102639.81
2023-04-16T11:37:56.421Z,102641.16
2023-04-16T11:40:23.534Z,102648.50
2023-04-16T11:42:50.287Z,102649.75
2023-04-16T11:45:19.447Z,102642.72
2023-04-16T11:47:51.770Z,102650.19
2023-04-16T11:50:22.108Z,102649.56
2023-04-16T11:52:49.934Z,102643.56
2023-04-16T11:55:16.765Z,102646.41
2023-04-16T11:57:43.897Z,102649.78
2023-04-16T12:00:13.776Z,102647.00
2023-04-16T12:03:01.763Z,102643.63
2023-04-16T12:05:31.937Z,102645.34
2023-04-16T12:08:00.002Z,102642.00
2023-04-16T12:10:27.800Z,102634.78
2023-04-16T12:12:54.586Z,102642.72
2023-04-16T12:15:21.499Z,102642.09
2023-04-16T12:17:48.822Z,102643.78
2023-04-16T12:20:16.300Z,102645.66
2023-04-16T12:22:49.426Z,102648.13
2023-04-16T12:25:17.897Z,102646.13
2023-04-16T12:27:53.388Z,102643.28
2023-04-16T12:30:22.956Z,102652.41
2023-04-16T12:32:51.899Z,102649.69
2023-04-16T12:35:34.347Z,102657.69
2023-04-16T12:38:01.616Z,102656.25
2023-04-16T12:40:28.506Z,102656.59
2023-04-16T12:42:55.804Z,102662.31
2023-04-16T12:45:22.907Z,102652.69
2023-04-16T12:47:50.626Z,102656.59
2023-04-16T12:50:18.101Z,102651.63
2023-04-16T12:52:45.047Z,102646.06
2023-04-16T12:55:14.213Z,102654.06
2023-04-16T12:57:41.381Z,102649.34
2023-04-16T13:00:10.955Z,102663.66
2023-04-16T13:02:38.398Z,102653.19
2023-04-16T13:05:06.225Z,102650.41
2023-04-16T13:07:34.298Z,102648.91
2023-04-16T13:10:01.782Z,102651.41
2023-04-16T13:12:29.138Z,102651.09
2023-04-16T13:14:56.449Z,102650.44
2023-04-16T13:17:23.773Z,102648.28
2023-04-16T13:19:51.330Z,102649.25
2023-04-16T13:22:18.581Z,102659.06
2023-04-16T13:24:46.251Z,102647.56
2023-04-16T13:27:16.226Z,102644.44
2023-04-16T13:29:43.606Z,102651.19
2023-04-16T13:32:14.114Z,102649.75
2023-04-16T13:34:41.225Z,102649.38
2023-04-16T13:37:08.512Z,102644.09
2023-04-16T13:39:35.822Z,102649.75
2023-04-16T13:42:03.200Z,102645.19
2023-04-16T13:44:30.816Z,102640.88
2023-04-16T13:46:58.425Z,102644.81
2023-04-16T13:49:26.021Z,102642.19
2023-04-16T13:51:53.258Z,102646.50
2023-04-16T13:54:20.775Z,102641.22
2023-04-16T13:56:47.862Z,102640.06
2023-04-16T13:59:16.884Z,102643.81
2023-04-16T14:01:44.209Z,102652.47
2023-04-16T14:04:11.751Z,102646.06
2023-04-16T14:06:38.812Z,102649.66
2023-04-16T14:09:05.659Z,102643.28
2023-04-16T14:11:32.383Z,102647.38
2023-04-16T14:13:59.190Z,102648.13
2023-04-16T14:16:26.509Z,102659.28
2023-04-16T14:18:53.459Z,102646.97
2023-04-16T14:21:20.176Z,102659.59
2023-04-16T14:23:47.161Z,102655.97
2023-04-16T14:26:14.471Z,102658.44
2023-04-16T14:28:41.692Z,102658.75
2023-04-16T14:31:08.619Z,102655.00
2023-04-16T14:33:35.482Z,102654.94
2023-04-16T14:36:03.347Z,102666.38
2023-04-16T14:38:31.346Z,102659.38
2023-04-16T14:41:00.575Z,102655.75
2023-04-16T14:43:27.690Z,102652.81
2023-04-16T14:45:54.539Z,102650.91
2023-04-16T14:48:22.228Z,102648.53
2023-04-16T14:50:49.002Z,102656.38
2023-04-16T14:53:16.082Z,102664.13
2023-04-16T14:55:42.836Z,102659.88
2023-04-16T14:58:10.860Z,102658.31
2023-04-16T15:00:37.766Z,102655.81
2023-04-16T15:03:05.882Z,102655.91
2023-04-16T15:05:33.084Z,102657.94
2023-04-16T15:08:00.796Z,102656.66
2023-04-16T15:10:27.938Z,102654.41
2023-04-16T15:12:54.948Z,102655.88
2023-04-16T15:15:21.981Z,102654.75
2023-04-16T15:17:50.475Z,102654.88
2023-04-16T15:20:17.425Z,102651.94
2023-04-16T15:22:44.241Z,102646.22
2023-04-16T15:25:11.141Z,102645.72
2023-04-16T15:27:38.051Z,102641.81
2023-04-16T15:30:05.310Z,102647.75
2023-04-16T15:32:32.004Z,102646.63
2023-04-16T15:34:59.990Z,102650.91
2023-04-16T15:37:27.073Z,102652.03
2023-04-16T15:39:53.954Z,102648.41
2023-04-16T15:42:21.128Z,102650.38
2023-04-16T15:44:47.897Z,102650.38
2023-04-16T15:47:14.668Z,102650.97
2023-04-16T15:49:42.270Z,102643.16
2023-04-16T15:52:09.973Z,102649.38
2023-04-16T15:54:37.765Z,102647.59
2023-04-16T15:57:04.979Z,102650.97
2023-04-16T15:59:32.994Z,102648.81
2023-04-16T16:02:01.114Z,102639.47
2023-04-16T16:04:28.752Z,102650.78
2023-04-16T16:06:56.740Z,102642.22
2023-04-16T16:09:27.093Z,102651.13
2023-04-16T16:11:55.772Z,102652.88
2023-04-16T16:14:23.135Z,102648.09
2023-04-16T16:16:50.986Z,102648.56
2023-04-16T16:19:18.333Z,102647.88
2023-04-16T16:21:45.605Z,102652.13
2023-04-16T16:24:14.198Z,102656.69
2023-04-16T16:26:41.840Z,102652.88
2023-04-16T16:29:09.661Z,102653.34
2023-04-16T16:31:37.351Z,102655.56
2023-04-16T16:34:04.760Z,102657.72
2023-04-16T16:36:36.896Z,102661.88
2023-04-16T16:39:05.170Z,102667.59
2023-04-16T16:41:32.668Z,102663.69
2023-04-16T16:44:00.134Z,102667.47
2023-04-16T16:46:27.386Z,102666.97
2023-04-16T16:48:54.793Z,102664.16
2023-04-16T16:51:22.306Z,102663.16
2023-04-16T16:53:49.465Z,102664.88
2023-04-16T16:56:16.982Z,102664.94
2023-04-16T16:58:44.232Z,102663.94
2023-04-16T17:01:11.641Z,102661.03
2023-04-16T17:03:39.019Z,102669.69
2023-04-16T17:06:06.919Z,102666.75
2023-04-16T17:08:34.351Z,102663.75
2023-04-16T17:11:05.111Z,102663.06
2023-04-16T17:13:33.014Z,102670.28
2023-04-16T17:16:01.393Z,102667.63
2023-04-16T17:18:28.774Z,102669.59
2023-04-16T17:20:56.235Z,102669.94
2023-04-16T17:23:24.138Z,102672.66
2023-04-16T17:25:51.571Z,102668.19
2023-04-16T17:28:19.145Z,102677.50
2023-04-16T17:30:50.566Z,102679.50
2023-04-16T17:33:19.702Z,102675.41
2023-04-16T17:35:47.237Z,102682.91
2023-04-16T17:38:14.897Z,102674.06
2023-04-16T17:40:43.095Z,102680.72
2023-04-16T17:43:10.591Z,102679.63
2023-04-16T17:45:37.837Z,102683.03
2023-04-16T17:48:05.652Z,102675.88
2023-04-16T17:50:32.802Z,102686.31
2023-04-16T17:53:03.713Z,102687.97
2023-04-16T17:55:31.584Z,102682.16
2023-04-16T17:57:58.974Z,102684.22
2023-04-16T18:00:26.481Z,102695.91
2023-04-16T18:02:54.539Z,102698.19
2023-04-16T18:05:22.265Z,102701.59
2023-04-16T18:07:50.802Z,102703.63
2023-04-16T18:10:18.125Z,102704.66
2023-04-16T18:12:46.639Z,102702.81
2023-04-16T18:15:13.688Z,102706.75
2023-04-16T18:17:41.055Z,102710.16
2023-04-16T18:20:09.559Z,102719.72
2023-04-16T18:22:36.672Z,102714.59
2023-04-16T18:25:04.418Z,102719.84
2023-04-16T18:27:32.160Z,102720.69
2023-04-16T18:29:59.715Z,102717.28
2023-04-16T18:32:30.809Z,102720.16
2023-04-16T18:35:00.262Z,102720.91
2023-04-16T18:37:27.324Z,102731.19
2023-04-16T18:39:57.896Z,102722.00
2023-04-16T18:42:28.329Z,102732.25
2023-04-16T18:44:55.709Z,102739.44
2023-04-16T18:47:22.835Z,102736.97
2023-04-16T18:49:50.179Z,102745.09
2023-04-16T18:52:17.491Z,102749.94
2023-04-16T18:54:45.130Z,102749.31
2023-04-16T18:57:12.214Z,102753.03
2023-04-16T18:59:39.649Z,102754.38
2023-04-16T19:02:07.520Z,102749.72
2023-04-16T19:04:35.172Z,102749.59
2023-04-16T19:07:02.508Z,102759.84
2023-04-16T19:09:29.758Z,102759.19
2023-04-16T19:11:57.837Z,102755.81
2023-04-16T19:14:25.031Z,102758.91
2023-04-16T19:16:52.276Z,102760.34
2023-04-16T19:19:19.572Z,102757.47
2023-04-16T19:21:47.985Z,102769.19
2023-04-16T19:24:16.445Z,102767.94
2023-04-16T19:26:43.872Z,102773.09
2023-04-16T19:29:11.372Z,102765.03
2023-04-16T19:31:39.239Z,102768.44
2023-04-16T19:34:06.700Z,102776.38
2023-04-16T19:36:34.109Z,102772.03
2023-04-16T19:39:01.603Z,102767.09
2023-04-16T19:41:29.210Z,102777.38
2023-04-16T19:43:56.555Z,102771.22
2023-04-16T19:46:24.213Z,102769.88
2023-04-16T19:48:51.974Z,102768.97
2023-04-16T19:51:19.393Z,102778.75
2023-04-16T19:53:46.816Z,102779.78
2023-04-16T19:56:16.260Z,102779.25
2023-04-16T19:58:43.618Z,102779.44
2023-04-16T20:01:11.508Z,102779.44
2023-04-16T20:03:39.186Z,102774.41
2023-04-16T20:06:07.177Z,102769.81
2023-04-16T20:08:35.175Z,102763.19
2023-04-16T20:11:02.404Z,102766.50
2023-04-16T20:13:29.436Z,102775.28
2023-04-16T20:15:57.080Z,102767.66
2023-04-16T20:18:25.991Z,102771.16
2023-04-16T20:20:54.313Z,102772.06
2023-04-16T20:23:21.479Z,102762.88
2023-04-16T20:25:49.447Z,102770.81
2023-04-16T20:28:18.278Z,102770.06
2023-04-16T20:30:45.915Z,102776.06
2023-04-16T20:33:13.162Z,102769.25
2023-04-16T20:35:40.375Z,102774.88
2023-04-16T20:38:07.746Z,102769.19
2023-04-16T20:40:38.306Z,102766.41
2023-04-16T20:43:10.431Z,102763.13
2023-04-16T20:45:41.294Z,102764.16
2023-04-16T20:48:08.630Z,102763.84
2023-04-16T20:50:36.321Z,102764.31
2023-04-16T20:53:03.798Z,102767.53
2023-04-16T20:55:31.219Z,102761.53
2023-04-16T20:57:58.577Z,102762.91
2023-04-16T21:00:26.049Z,102755.91
2023-04-16T21:02:53.623Z,102757.84
2023-04-16T21:05:21.609Z,102753.13
2023-04-16T21:07:48.906Z,102760.19
2023-04-16T21:10:20.507Z,102757.50
2023-04-16T21:12:47.987Z,102758.84
2023-04-16T21:15:15.283Z,102757.00
2023-04-16T21:17:42.669Z,102750.59
2023-04-16T21:20:13.871Z,102761.91
2023-04-16T21:22:41.394Z,102759.97
2023-04-16T21:25:09.173Z,102751.19
2023-04-16T21:27:36.772Z,102757.78
2023-04-16T21:30:04.301Z,102750.28
2023-04-16T21:32:31.655Z,102743.63
2023-04-16T21:34:58.994Z,102750.59
2023-04-16T21:37:26.710Z,102755.25
2023-04-16T21:39:54.153Z,102749.09
2023-04-16T21:42:21.727Z,102751.63
2023-04-16T21:44:49.265Z,102743.91
2023-04-16T21:47:16.704Z,102744.91
2023-04-16T21:49:44.332Z,102749.53
2023-04-16T21:52:14.425Z,102750.44
2023-04-16T21:54:41.896Z,102754.66
2023-04-16T21:57:09.127Z,102749.16
2023-04-16T21:59:36.353Z,102754.97
2023-04-16T22:02:04.496Z,102756.00
2023-04-16T22:04:38.720Z,102751.28
2023-04-16T22:07:09.043Z,102746.75
2023-04-16T22:09:41.253Z,102743.09
2023-04-16T22:12:12.360Z,102756.59
2023-04-16T22:14:46.190Z,102756.09
2023-04-16T22:17:24.168Z,102760.94
2023-04-16T22:19:53.709Z,102758.84
2023-04-16T22:22:21.963Z,102758.41
2023-04-16T22:24:49.424Z,102758.59
2023-04-16T22:27:16.750Z,102756.38
2023-04-16T22:29:44.198Z,102750.84
2023-04-16T22:32:12.541Z,102747.88
2023-04-16T22:34:39.930Z,102747.06
2023-04-16T22:37:08.350Z,102750.16
2023-04-16T22:39:35.907Z,102752.38
2023-04-16T22:42:03.199Z,102743.59
2023-04-16T22:44:30.798Z,102756.88
2023-04-16T22:46:58.301Z,102749.91
2023-04-16T22:49:26.838Z,102748.78
2023-04-16T22:51:54.177Z,102749.47
2023-04-16T22:54:21.850Z,102758.44
2023-04-16T22:56:50.191Z,102755.72
2023-04-16T22:59:17.670Z,102748.53
2023-04-16T23:01:45.071Z,102751.53
2023-04-16T23:04:12.790Z,102751.00
2023-04-16T23:06:41.029Z,102752.72
2023-04-16T23:09:09.241Z,102752.44
2023-04-16T23:11:36.751Z,102760.97
2023-04-16T23:14:05.312Z,102758.97
2023-04-16T23:16:32.401Z,102759.28
2023-04-16T23:18:59.727Z,102751.22
2023-04-16T23:21:27.200Z,102758.25
2023-04-16T23:23:54.551Z,102758.84
2023-04-16T23:26:21.987Z,102755.88
2023-04-16T23:28:49.349Z,102756.38
2023-04-16T23:31:16.891Z,102765.00
2023-04-16T23:33:44.019Z,102768.38
2023-04-16T23:36:11.323Z,102770.78
2023-04-16T23:38:38.719Z,102768.59
2023-04-16T23:41:05.950Z,102769.66
2023-04-16T23:43:33.351Z,102766.59
2023-04-16T23:46:01.355Z,102763.81
2023-04-16T23:48:29.190Z,102759.88
2023-04-16T23:50:56.850Z,102764.50
2023-04-16T23:53:24.289Z,102769.22
2023-04-16T23:55:52.163Z,102765.16
2023-04-16T23:58:19.451Z,102765.41
